sensor_id;sensor_type;location;lat;lon;timestamp;temperature;humidity
60293;DHT22;52402;52.670;6.750;2023-12-28T00:00:16;8.40;99.90
60293;DHT22;52402;52.670;6.750;2023-12-28T00:02:41;8.40;99.90
60293;DHT22;52402;52.670;6.750;2023-12-28T00:05:07;8.40;99.90
60293;DHT22;52402;52.670;6.750;2023-12-28T00:07:32;8.40;99.90
60293;DHT22;52402;52.670;6.750;2023-12-28T00:09:58;8.50;99.90
60293;DHT22;52402;52.670;6.750;2023-12-28T00:12:24;8.50;99.90
60293;DHT22;52402;52.670;6.750;2023-12-28T00:14:50;8.50;99.90
60293;DHT22;52402;52.670;6.750;2023-12-28T00:17:15;8.60;99.90
60293;DHT22;52402;52.670;6.750;2023-12-28T00:19:41;8.60;99.90
60293;DHT22;52402;52.670;6.750;2023-12-28T00:22:06;8.60;99.90
60293;DHT22;52402;52.670;6.750;2023-12-28T00:24:32;8.60;99.90
60293;DHT22;52402;52.670;6.750;2023-12-28T00:26:58;8.70;99.90
60293;DHT22;52402;52.670;6.750;2023-12-28T00:29:23;8.70;99.90
60293;DHT22;52402;52.670;6.750;2023-12-28T00:31:49;8.70;99.90
60293;DHT22;52402;52.670;6.750;2023-12-28T00:34:14;8.70;99.90
60293;DHT22;52402;52.670;6.750;2023-12-28T00:36:40;8.70;99.90
60293;DHT22;52402;52.670;6.750;2023-12-28T00:39:05;8.70;99.90
60293;DHT22;52402;52.670;6.750;2023-12-28T00:41:31;8.70;99.90
60293;DHT22;52402;52.670;6.750;2023-12-28T00:43:57;8.80;99.90
60293;DHT22;52402;52.670;6.750;2023-12-28T00:46:22;8.80;99.90
60293;DHT22;52402;52.670;6.750;2023-12-28T00:48:48;8.70;99.90
60293;DHT22;52402;52.670;6.750;2023-12-28T00:51:14;8.70;99.90
60293;DHT22;52402;52.670;6.750;2023-12-28T00:53:39;8.80;99.90
60293;DHT22;52402;52.670;6.750;2023-12-28T00:56:05;8.80;99.90
60293;DHT22;52402;52.670;6.750;2023-12-28T00:58:30;8.80;99.90
60293;DHT22;52402;52.670;6.750;2023-12-28T01:00:56;8.70;99.90
60293;DHT22;52402;52.670;6.750;2023-12-28T01:03:22;8.80;99.90
60293;DHT22;52402;52.670;6.750;2023-12-28T01:05:48;8.70;99.90
60293;DHT22;52402;52.670;6.750;2023-12-28T01:08:16;8.70;99.90
60293;DHT22;52402;52.670;6.750;2023-12-28T01:10:43;8.70;99.90
60293;DHT22;52402;52.670;6.750;2023-12-28T01:13:08;8.70;99.90
60293;DHT22;52402;52.670;6.750;2023-12-28T01:15:34;8.60;99.90
60293;DHT22;52402;52.670;6.750;2023-12-28T01:17:59;8.60;99.90
60293;DHT22;52402;52.670;6.750;2023-12-28T01:20:25;8.60;99.90
60293;DHT22;52402;52.670;6.750;2023-12-28T01:22:51;8.60;99.90
60293;DHT22;52402;52.670;6.750;2023-12-28T01:25:16;8.70;99.90
60293;DHT22;52402;52.670;6.750;2023-12-28T01:27:42;8.60;99.90
60293;DHT22;52402;52.670;6.750;2023-12-28T01:30:08;8.60;99.90
60293;DHT22;52402;52.670;6.750;2023-12-28T01:32:33;8.50;99.90
60293;DHT22;52402;52.670;6.750;2023-12-28T01:34:59;8.50;99.90
60293;DHT22;52402;52.670;6.750;2023-12-28T01:37:24;8.50;99.90
60293;DHT22;52402;52.670;6.750;2023-12-28T01:39:50;8.50;99.90
60293;DHT22;52402;52.670;6.750;2023-12-28T01:42:16;8.50;99.90
60293;DHT22;52402;52.670;6.750;2023-12-28T01:44:41;8.40;99.90
60293;DHT22;52402;52.670;6.750;2023-12-28T01:47:07;8.40;99.90
60293;DHT22;52402;52.670;6.750;2023-12-28T01:49:34;8.40;99.90
60293;DHT22;52402;52.670;6.750;2023-12-28T01:52:01;8.40;99.90
60293;DHT22;52402;52.670;6.750;2023-12-28T01:54:30;8.40;99.90
60293;DHT22;52402;52.670;6.750;2023-12-28T01:56:55;8.40;99.90
60293;DHT22;52402;52.670;6.750;2023-12-28T01:59:22;8.40;99.90
60293;DHT22;52402;52.670;6.750;2023-12-28T02:01:48;8.50;99.90
60293;DHT22;52402;52.670;6.750;2023-12-28T02:04:14;8.50;99.90
60293;DHT22;52402;52.670;6.750;2023-12-28T02:06:40;8.50;99.90
60293;DHT22;52402;52.670;6.750;2023-12-28T02:09:05;8.50;99.90
60293;DHT22;52402;52.670;6.750;2023-12-28T02:11:31;8.50;99.90
60293;DHT22;52402;52.670;6.750;2023-12-28T02:13:57;8.50;99.90
60293;DHT22;52402;52.670;6.750;2023-12-28T02:16:30;8.50;99.90
60293;DHT22;52402;52.670;6.750;2023-12-28T02:19:00;8.50;99.90
60293;DHT22;52402;52.670;6.750;2023-12-28T02:21:30;8.60;99.90
60293;DHT22;52402;52.670;6.750;2023-12-28T02:23:56;8.50;99.90
60293;DHT22;52402;52.670;6.750;2023-12-28T02:26:22;8.60;99.90
60293;DHT22;52402;52.670;6.750;2023-12-28T02:28:48;8.50;99.90
60293;DHT22;52402;52.670;6.750;2023-12-28T02:31:32;8.60;99.90
60293;DHT22;52402;52.670;6.750;2023-12-28T02:34:04;8.60;99.90
60293;DHT22;52402;52.670;6.750;2023-12-28T02:36:33;8.60;99.90
60293;DHT22;52402;52.670;6.750;2023-12-28T02:39:00;8.60;99.90
60293;DHT22;52402;52.670;6.750;2023-12-28T02:41:29;8.60;99.90
60293;DHT22;52402;52.670;6.750;2023-12-28T02:43:55;8.60;99.90
60293;DHT22;52402;52.670;6.750;2023-12-28T02:46:21;8.60;99.90
60293;DHT22;52402;52.670;6.750;2023-12-28T02:48:46;8.60;99.90
60293;DHT22;52402;52.670;6.750;2023-12-28T02:51:12;8.60;99.90
60293;DHT22;52402;52.670;6.750;2023-12-28T02:53:38;8.60;99.90
60293;DHT22;52402;52.670;6.750;2023-12-28T02:56:03;8.60;99.90
60293;DHT22;52402;52.670;6.750;2023-12-28T02:58:29;8.70;99.90
60293;DHT22;52402;52.670;6.750;2023-12-28T03:00:55;8.70;99.90
60293;DHT22;52402;52.670;6.750;2023-12-28T03:03:20;8.70;99.90
60293;DHT22;52402;52.670;6.750;2023-12-28T03:05:46;8.80;99.90
60293;DHT22;52402;52.670;6.750;2023-12-28T03:08:11;8.80;99.90
60293;DHT22;52402;52.670;6.750;2023-12-28T03:10:37;8.80;99.90
60293;DHT22;52402;52.670;6.750;2023-12-28T03:13:03;8.90;99.90
60293;DHT22;52402;52.670;6.750;2023-12-28T03:15:28;8.90;99.90
60293;DHT22;52402;52.670;6.750;2023-12-28T03:17:54;8.90;99.90
60293;DHT22;52402;52.670;6.750;2023-12-28T03:20:20;9.00;99.90
60293;DHT22;52402;52.670;6.750;2023-12-28T03:22:46;9.00;99.90
60293;DHT22;52402;52.670;6.750;2023-12-28T03:25:11;9.00;99.90
60293;DHT22;52402;52.670;6.750;2023-12-28T03:27:37;9.00;99.90
60293;DHT22;52402;52.670;6.750;2023-12-28T03:30:03;9.00;99.90
60293;DHT22;52402;52.670;6.750;2023-12-28T03:32:28;9.00;99.90
60293;DHT22;52402;52.670;6.750;2023-12-28T03:34:54;9.00;99.90
60293;DHT22;52402;52.670;6.750;2023-12-28T03:37:19;9.10;99.90
60293;DHT22;52402;52.670;6.750;2023-12-28T03:39:45;9.10;99.90
60293;DHT22;52402;52.670;6.750;2023-12-28T03:42:11;9.10;99.90
60293;DHT22;52402;52.670;6.750;2023-12-28T03:44:36;9.10;99.90
60293;DHT22;52402;52.670;6.750;2023-12-28T03:47:02;9.10;99.90
60293;DHT22;52402;52.670;6.750;2023-12-28T03:49:27;9.10;99.90
60293;DHT22;52402;52.670;6.750;2023-12-28T03:51:53;9.10;99.90
60293;DHT22;52402;52.670;6.750;2023-12-28T03:54:20;9.20;99.90
60293;DHT22;52402;52.670;6.750;2023-12-28T03:56:46;9.20;99.90
60293;DHT22;52402;52.670;6.750;2023-12-28T03:59:13;9.20;99.90
60293;DHT22;52402;52.670;6.750;2023-12-28T04:01:40;9.20;99.90
60293;DHT22;52402;52.670;6.750;2023-12-28T04:04:06;9.20;99.90
60293;DHT22;52402;52.670;6.750;2023-12-28T04:06:32;9.20;99.90
60293;DHT22;52402;52.670;6.750;2023-12-28T04:09:00;9.20;99.90
60293;DHT22;52402;52.670;6.750;2023-12-28T04:11:25;9.20;99.90
60293;DHT22;52402;52.670;6.750;2023-12-28T04:13:51;9.20;99.90
60293;DHT22;52402;52.670;6.750;2023-12-28T04:16:17;9.20;99.90
60293;DHT22;52402;52.670;6.750;2023-12-28T04:18:43;9.20;99.90
60293;DHT22;52402;52.670;6.750;2023-12-28T04:21:10;9.30;99.90
60293;DHT22;52402;52.670;6.750;2023-12-28T04:23:41;9.30;99.90
60293;DHT22;52402;52.670;6.750;2023-12-28T04:26:07;9.30;99.90
60293;DHT22;52402;52.670;6.750;2023-12-28T04:28:33;9.30;99.90
60293;DHT22;52402;52.670;6.750;2023-12-28T04:31:04;9.30;99.90
60293;DHT22;52402;52.670;6.750;2023-12-28T04:33:30;9.30;99.90
60293;DHT22;52402;52.670;6.750;2023-12-28T04:35:56;9.30;99.90
60293;DHT22;52402;52.670;6.750;2023-12-28T04:38:22;9.40;99.90
60293;DHT22;52402;52.670;6.750;2023-12-28T04:40:47;9.40;99.90
60293;DHT22;52402;52.670;6.750;2023-12-28T04:43:13;9.40;99.90
60293;DHT22;52402;52.670;6.750;2023-12-28T04:45:39;9.40;99.90
60293;DHT22;52402;52.670;6.750;2023-12-28T04:48:05;9.40;99.90
60293;DHT22;52402;52.670;6.750;2023-12-28T04:50:30;9.40;99.90
60293;DHT22;52402;52.670;6.750;2023-12-28T04:52:56;9.50;99.90
60293;DHT22;52402;52.670;6.750;2023-12-28T04:55:22;9.50;99.90
60293;DHT22;52402;52.670;6.750;2023-12-28T04:57:49;9.40;99.90
60293;DHT22;52402;52.670;6.750;2023-12-28T05:00:15;9.40;99.90
60293;DHT22;52402;52.670;6.750;2023-12-28T05:02:41;9.40;99.90
60293;DHT22;52402;52.670;6.750;2023-12-28T05:05:06;9.30;99.90
60293;DHT22;52402;52.670;6.750;2023-12-28T05:07:35;9.30;99.90
60293;DHT22;52402;52.670;6.750;2023-12-28T05:10:01;9.40;99.90
60293;DHT22;52402;52.670;6.750;2023-12-28T05:12:26;9.40;99.90
60293;DHT22;52402;52.670;6.750;2023-12-28T05:14:52;9.50;99.90
60293;DHT22;52402;52.670;6.750;2023-12-28T05:17:18;9.50;99.90
60293;DHT22;52402;52.670;6.750;2023-12-28T05:19:44;9.50;99.90
60293;DHT22;52402;52.670;6.750;2023-12-28T05:22:10;9.60;99.90
60293;DHT22;52402;52.670;6.750;2023-12-28T05:24:38;9.60;99.90
60293;DHT22;52402;52.670;6.750;2023-12-28T05:27:03;9.70;99.90
60293;DHT22;52402;52.670;6.750;2023-12-28T05:29:29;9.70;99.90
60293;DHT22;52402;52.670;6.750;2023-12-28T05:31:55;9.70;99.90
60293;DHT22;52402;52.670;6.750;2023-12-28T05:34:20;9.80;99.90
60293;DHT22;52402;52.670;6.750;2023-12-28T05:36:46;9.80;99.90
60293;DHT22;52402;52.670;6.750;2023-12-28T05:39:12;9.80;99.90
60293;DHT22;52402;52.670;6.750;2023-12-28T05:41:39;9.80;99.90
60293;DHT22;52402;52.670;6.750;2023-12-28T05:44:05;9.80;99.90
60293;DHT22;52402;52.670;6.750;2023-12-28T05:46:31;9.90;99.90
60293;DHT22;52402;52.670;6.750;2023-12-28T05:48:57;9.80;99.90
60293;DHT22;52402;52.670;6.750;2023-12-28T05:51:25;9.90;99.90
60293;DHT22;52402;52.670;6.750;2023-12-28T05:53:51;9.90;99.90
60293;DHT22;52402;52.670;6.750;2023-12-28T05:56:17;9.90;99.90
60293;DHT22;52402;52.670;6.750;2023-12-28T05:58:43;9.90;99.90
60293;DHT22;52402;52.670;6.750;2023-12-28T06:01:08;9.90;99.90
60293;DHT22;52402;52.670;6.750;2023-12-28T06:03:34;9.90;99.90
60293;DHT22;52402;52.670;6.750;2023-12-28T06:06:00;9.90;99.90
60293;DHT22;52402;52.670;6.750;2023-12-28T06:08:25;9.90;99.90
60293;DHT22;52402;52.670;6.750;2023-12-28T06:10:51;10.00;99.90
60293;DHT22;52402;52.670;6.750;2023-12-28T06:13:17;10.00;99.90
60293;DHT22;52402;52.670;6.750;2023-12-28T06:15:42;9.90;99.90
60293;DHT22;52402;52.670;6.750;2023-12-28T06:18:09;9.90;99.90
60293;DHT22;52402;52.670;6.750;2023-12-28T06:20:34;10.00;99.90
60293;DHT22;52402;52.670;6.750;2023-12-28T06:23:01;10.00;99.90
60293;DHT22;52402;52.670;6.750;2023-12-28T06:25:27;10.00;99.90
60293;DHT22;52402;52.670;6.750;2023-12-28T06:27:52;10.00;99.90
60293;DHT22;52402;52.670;6.750;2023-12-28T06:30:18;10.10;99.90
60293;DHT22;52402;52.670;6.750;2023-12-28T06:32:44;10.10;99.90
60293;DHT22;52402;52.670;6.750;2023-12-28T06:35:10;10.10;99.90
60293;DHT22;52402;52.670;6.750;2023-12-28T06:37:35;10.10;99.90
60293;DHT22;52402;52.670;6.750;2023-12-28T06:40:01;10.10;99.90
60293;DHT22;52402;52.670;6.750;2023-12-28T06:42:27;10.10;99.90
60293;DHT22;52402;52.670;6.750;2023-12-28T06:44:52;10.10;99.90
60293;DHT22;52402;52.670;6.750;2023-12-28T06:47:18;10.20;99.90
60293;DHT22;52402;52.670;6.750;2023-12-28T06:49:43;10.20;99.90
60293;DHT22;52402;52.670;6.750;2023-12-28T06:52:09;10.20;99.90
60293;DHT22;52402;52.670;6.750;2023-12-28T06:54:36;10.20;99.90
60293;DHT22;52402;52.670;6.750;2023-12-28T06:57:02;10.20;99.90
60293;DHT22;52402;52.670;6.750;2023-12-28T06:59:27;10.20;99.90
60293;DHT22;52402;52.670;6.750;2023-12-28T07:01:53;10.20;99.90
60293;DHT22;52402;52.670;6.750;2023-12-28T07:04:19;10.20;99.90
60293;DHT22;52402;52.670;6.750;2023-12-28T07:06:44;10.20;99.90
60293;DHT22;52402;52.670;6.750;2023-12-28T07:09:11;10.20;99.90
60293;DHT22;52402;52.670;6.750;2023-12-28T07:11:37;10.20;99.90
60293;DHT22;52402;52.670;6.750;2023-12-28T07:14:02;10.20;99.90
60293;DHT22;52402;52.670;6.750;2023-12-28T07:16:28;10.20;99.90
60293;DHT22;52402;52.670;6.750;2023-12-28T07:18:54;10.20;99.90
60293;DHT22;52402;52.670;6.750;2023-12-28T07:21:19;10.20;99.90
60293;DHT22;52402;52.670;6.750;2023-12-28T07:23:45;10.20;99.90
60293;DHT22;52402;52.670;6.750;2023-12-28T07:26:15;10.20;99.90
60293;DHT22;52402;52.670;6.750;2023-12-28T07:28:41;10.20;99.90
60293;DHT22;52402;52.670;6.750;2023-12-28T07:31:10;10.30;99.90
60293;DHT22;52402;52.670;6.750;2023-12-28T07:33:36;10.30;99.90
60293;DHT22;52402;52.670;6.750;2023-12-28T07:36:02;10.30;99.90
60293;DHT22;52402;52.670;6.750;2023-12-28T07:38:28;10.30;99.90
60293;DHT22;52402;52.670;6.750;2023-12-28T07:40:53;10.30;99.90
60293;DHT22;52402;52.670;6.750;2023-12-28T07:43:19;10.30;99.90
60293;DHT22;52402;52.670;6.750;2023-12-28T07:45:45;10.30;99.90
60293;DHT22;52402;52.670;6.750;2023-12-28T07:48:11;10.30;99.90
60293;DHT22;52402;52.670;6.750;2023-12-28T07:50:36;10.30;99.90
60293;DHT22;52402;52.670;6.750;2023-12-28T07:53:02;10.30;99.90
60293;DHT22;52402;52.670;6.750;2023-12-28T07:55:28;10.30;99.90
60293;DHT22;52402;52.670;6.750;2023-12-28T07:57:54;10.30;99.90
60293;DHT22;52402;52.670;6.750;2023-12-28T08:00:20;10.30;99.90
60293;DHT22;52402;52.670;6.750;2023-12-28T08:02:46;10.30;99.90
60293;DHT22;52402;52.670;6.750;2023-12-28T08:05:14;10.30;99.90
60293;DHT22;52402;52.670;6.750;2023-12-28T08:07:39;10.30;99.90
60293;DHT22;52402;52.670;6.750;2023-12-28T08:10:05;10.30;99.90
60293;DHT22;52402;52.670;6.750;2023-12-28T08:12:31;10.30;99.90
60293;DHT22;52402;52.670;6.750;2023-12-28T08:14:59;10.40;99.90
60293;DHT22;52402;52.670;6.750;2023-12-28T08:17:25;10.40;99.90
60293;DHT22;52402;52.670;6.750;2023-12-28T08:19:50;10.40;99.90
60293;DHT22;52402;52.670;6.750;2023-12-28T08:22:16;10.50;99.90
60293;DHT22;52402;52.670;6.750;2023-12-28T08:24:42;10.50;99.90
60293;DHT22;52402;52.670;6.750;2023-12-28T08:27:08;10.50;99.90
60293;DHT22;52402;52.670;6.750;2023-12-28T08:29:33;10.50;99.90
60293;DHT22;52402;52.670;6.750;2023-12-28T08:31:59;10.50;99.90
60293;DHT22;52402;52.670;6.750;2023-12-28T08:34:25;10.50;99.90
60293;DHT22;52402;52.670;6.750;2023-12-28T08:36:51;10.50;99.90
60293;DHT22;52402;52.670;6.750;2023-12-28T08:39:17;10.60;99.90
60293;DHT22;52402;52.670;6.750;2023-12-28T08:41:43;10.60;99.90
60293;DHT22;52402;52.670;6.750;2023-12-28T08:44:09;10.60;99.90
60293;DHT22;52402;52.670;6.750;2023-12-28T08:46:35;10.60;99.90
60293;DHT22;52402;52.670;6.750;2023-12-28T08:49:03;10.60;99.90
60293;DHT22;52402;52.670;6.750;2023-12-28T08:51:30;10.60;99.90
60293;DHT22;52402;52.670;6.750;2023-12-28T08:53:56;10.60;99.90
60293;DHT22;52402;52.670;6.750;2023-12-28T08:56:22;10.60;99.90
60293;DHT22;52402;52.670;6.750;2023-12-28T08:58:48;10.60;99.90
60293;DHT22;52402;52.670;6.750;2023-12-28T09:01:23;10.60;99.90
60293;DHT22;52402;52.670;6.750;2023-12-28T09:03:49;10.70;99.90
60293;DHT22;52402;52.670;6.750;2023-12-28T09:06:18;10.70;99.90
60293;DHT22;52402;52.670;6.750;2023-12-28T09:08:45;10.70;99.90
60293;DHT22;52402;52.670;6.750;2023-12-28T09:11:13;10.70;99.90
60293;DHT22;52402;52.670;6.750;2023-12-28T09:13:39;10.70;99.90
60293;DHT22;52402;52.670;6.750;2023-12-28T09:16:07;10.70;99.90
60293;DHT22;52402;52.670;6.750;2023-12-28T09:18:33;10.80;99.90
60293;DHT22;52402;52.670;6.750;2023-12-28T09:20:58;10.80;99.90
60293;DHT22;52402;52.670;6.750;2023-12-28T09:23:24;10.80;99.90
60293;DHT22;52402;52.670;6.750;2023-12-28T09:25:49;10.80;99.90
60293;DHT22;52402;52.670;6.750;2023-12-28T09:28:15;10.80;99.90
60293;DHT22;52402;52.670;6.750;2023-12-28T09:30:40;10.80;99.90
60293;DHT22;52402;52.670;6.750;2023-12-28T09:33:06;10.80;99.90
60293;DHT22;52402;52.670;6.750;2023-12-28T09:35:32;10.80;99.90
60293;DHT22;52402;52.670;6.750;2023-12-28T09:37:57;10.80;99.90
60293;DHT22;52402;52.670;6.750;2023-12-28T09:40:24;10.80;99.90
60293;DHT22;52402;52.670;6.750;2023-12-28T09:43:13;10.90;99.90
60293;DHT22;52402;52.670;6.750;2023-12-28T09:45:39;10.80;99.90
60293;DHT22;52402;52.670;6.750;2023-12-28T09:48:05;10.80;99.90
60293;DHT22;52402;52.670;6.750;2023-12-28T09:50:33;10.80;99.90
60293;DHT22;52402;52.670;6.750;2023-12-28T09:52:59;10.80;99.90
60293;DHT22;52402;52.670;6.750;2023-12-28T09:55:25;10.80;99.90
60293;DHT22;52402;52.670;6.750;2023-12-28T09:57:51;10.70;99.90
60293;DHT22;52402;52.670;6.750;2023-12-28T10:00:17;10.70;99.90
60293;DHT22;52402;52.670;6.750;2023-12-28T10:02:44;10.70;99.90
60293;DHT22;52402;52.670;6.750;2023-12-28T10:05:14;10.70;99.90
60293;DHT22;52402;52.670;6.750;2023-12-28T10:07:45;10.70;99.90
60293;DHT22;52402;52.670;6.750;2023-12-28T10:10:10;10.70;99.90
60293;DHT22;52402;52.670;6.750;2023-12-28T10:12:43;10.70;99.90
60293;DHT22;52402;52.670;6.750;2023-12-28T10:15:10;10.70;99.90
60293;DHT22;52402;52.670;6.750;2023-12-28T10:17:36;10.70;99.90
60293;DHT22;52402;52.670;6.750;2023-12-28T10:20:03;10.70;99.90
60293;DHT22;52402;52.670;6.750;2023-12-28T10:22:32;10.70;99.90
60293;DHT22;52402;52.670;6.750;2023-12-28T10:24:59;10.70;99.90
60293;DHT22;52402;52.670;6.750;2023-12-28T10:27:28;10.70;99.90
60293;DHT22;52402;52.670;6.750;2023-12-28T10:29:56;10.60;99.90
60293;DHT22;52402;52.670;6.750;2023-12-28T10:32:24;10.70;99.90
60293;DHT22;52402;52.670;6.750;2023-12-28T10:34:53;10.70;99.90
60293;DHT22;52402;52.670;6.750;2023-12-28T10:37:20;10.70;99.90
60293;DHT22;52402;52.670;6.750;2023-12-28T10:39:49;10.70;99.90
60293;DHT22;52402;52.670;6.750;2023-12-28T10:42:43;10.80;99.90
60293;DHT22;52402;52.670;6.750;2023-12-28T10:45:11;10.80;99.90
60293;DHT22;52402;52.670;6.750;2023-12-28T10:47:43;10.80;99.90
60293;DHT22;52402;52.670;6.750;2023-12-28T10:50:10;10.80;99.90
60293;DHT22;52402;52.670;6.750;2023-12-28T10:52:37;10.80;99.90
60293;DHT22;52402;52.670;6.750;2023-12-28T10:55:30;10.80;99.90
60293;DHT22;52402;52.670;6.750;2023-12-28T11:00:32;10.80;99.90
60293;DHT22;52402;52.670;6.750;2023-12-28T11:03:03;10.80;99.90
60293;DHT22;52402;52.670;6.750;2023-12-28T11:05:31;10.80;99.90
60293;DHT22;52402;52.670;6.750;2023-12-28T11:07:58;10.80;99.90
60293;DHT22;52402;52.670;6.750;2023-12-28T11:10:26;10.80;99.90
60293;DHT22;52402;52.670;6.750;2023-12-28T11:12:54;10.80;99.90
60293;DHT22;52402;52.670;6.750;2023-12-28T11:15:22;10.80;99.90
60293;DHT22;52402;52.670;6.750;2023-12-28T11:17:49;10.80;99.90
60293;DHT22;52402;52.670;6.750;2023-12-28T11:20:15;10.80;99.90
60293;DHT22;52402;52.670;6.750;2023-12-28T11:22:41;10.80;99.90
60293;DHT22;52402;52.670;6.750;2023-12-28T11:25:17;10.80;99.90
60293;DHT22;52402;52.670;6.750;2023-12-28T11:27:44;10.80;99.90
60293;DHT22;52402;52.670;6.750;2023-12-28T11:30:12;10.80;99.90
60293;DHT22;52402;52.670;6.750;2023-12-28T11:32:40;10.80;99.90
60293;DHT22;52402;52.670;6.750;2023-12-28T11:35:07;10.80;99.90
60293;DHT22;52402;52.670;6.750;2023-12-28T11:37:36;10.80;99.90
60293;DHT22;52402;52.670;6.750;2023-12-28T11:40:12;10.80;99.90
60293;DHT22;52402;52.670;6.750;2023-12-28T11:42:50;10.80;99.90
60293;DHT22;52402;52.670;6.750;2023-12-28T11:45:18;10.80;99.90
60293;DHT22;52402;52.670;6.750;2023-12-28T11:47:44;10.80;99.90
60293;DHT22;52402;52.670;6.750;2023-12-28T11:50:10;10.80;99.90
60293;DHT22;52402;52.670;6.750;2023-12-28T11:52:36;10.80;99.90
60293;DHT22;52402;52.670;6.750;2023-12-28T11:55:02;10.70;99.90
60293;DHT22;52402;52.670;6.750;2023-12-28T11:57:28;10.70;99.90
60293;DHT22;52402;52.670;6.750;2023-12-28T11:59:57;10.70;99.90
60293;DHT22;52402;52.670;6.750;2023-12-28T12:02:23;10.70;99.90
60293;DHT22;52402;52.670;6.750;2023-12-28T12:04:56;10.70;99.90
60293;DHT22;52402;52.670;6.750;2023-12-28T12:07:27;10.70;99.90
60293;DHT22;52402;52.670;6.750;2023-12-28T12:10:01;10.60;99.90
60293;DHT22;52402;52.670;6.750;2023-12-28T12:12:28;10.60;99.90
60293;DHT22;52402;52.670;6.750;2023-12-28T12:14:54;10.60;99.90
60293;DHT22;52402;52.670;6.750;2023-12-28T12:17:22;10.60;99.90
60293;DHT22;52402;52.670;6.750;2023-12-28T12:19:48;10.60;99.90
60293;DHT22;52402;52.670;6.750;2023-12-28T12:22:16;10.60;99.90
60293;DHT22;52402;52.670;6.750;2023-12-28T12:24:44;10.60;99.90
60293;DHT22;52402;52.670;6.750;2023-12-28T12:27:12;10.60;99.90
60293;DHT22;52402;52.670;6.750;2023-12-28T12:29:37;10.60;99.90
60293;DHT22;52402;52.670;6.750;2023-12-28T12:32:03;10.60;99.90
60293;DHT22;52402;52.670;6.750;2023-12-28T12:34:29;10.70;99.90
60293;DHT22;52402;52.670;6.750;2023-12-28T12:36:55;10.70;99.90
60293;DHT22;52402;52.670;6.750;2023-12-28T12:39:23;10.70;99.90
60293;DHT22;52402;52.670;6.750;2023-12-28T12:41:50;10.70;99.90
60293;DHT22;52402;52.670;6.750;2023-12-28T12:44:19;10.70;99.90
60293;DHT22;52402;52.670;6.750;2023-12-28T12:46:46;10.70;99.90
60293;DHT22;52402;52.670;6.750;2023-12-28T12:49:11;10.80;99.90
60293;DHT22;52402;52.670;6.750;2023-12-28T12:51:38;10.80;99.90
60293;DHT22;52402;52.670;6.750;2023-12-28T12:54:04;10.80;99.90
60293;DHT22;52402;52.670;6.750;2023-12-28T12:56:30;10.90;99.90
60293;DHT22;52402;52.670;6.750;2023-12-28T12:58:57;10.90;99.90
60293;DHT22;52402;52.670;6.750;2023-12-28T13:01:23;10.90;99.90
60293;DHT22;52402;52.670;6.750;2023-12-28T13:03:52;10.90;99.90
60293;DHT22;52402;52.670;6.750;2023-12-28T13:06:18;10.90;99.90
60293;DHT22;52402;52.670;6.750;2023-12-28T13:08:44;10.90;99.90
60293;DHT22;52402;52.670;6.750;2023-12-28T13:11:09;11.00;99.90
60293;DHT22;52402;52.670;6.750;2023-12-28T13:13:35;10.90;99.90
60293;DHT22;52402;52.670;6.750;2023-12-28T13:16:04;10.90;99.90
60293;DHT22;52402;52.670;6.750;2023-12-28T13:18:29;10.90;99.90
60293;DHT22;52402;52.670;6.750;2023-12-28T13:20:55;10.80;99.90
60293;DHT22;52402;52.670;6.750;2023-12-28T13:23:20;10.80;99.90
60293;DHT22;52402;52.670;6.750;2023-12-28T13:25:46;10.80;99.90
60293;DHT22;52402;52.670;6.750;2023-12-28T13:28:12;10.70;99.90
60293;DHT22;52402;52.670;6.750;2023-12-28T13:30:39;10.70;99.90
60293;DHT22;52402;52.670;6.750;2023-12-28T13:33:05;10.70;99.90
60293;DHT22;52402;52.670;6.750;2023-12-28T13:35:31;10.60;99.90
60293;DHT22;52402;52.670;6.750;2023-12-28T13:37:59;10.60;99.90
60293;DHT22;52402;52.670;6.750;2023-12-28T13:40:26;10.60;99.90
60293;DHT22;52402;52.670;6.750;2023-12-28T13:42:52;10.60;99.90
60293;DHT22;52402;52.670;6.750;2023-12-28T13:45:18;10.60;99.90
60293;DHT22;52402;52.670;6.750;2023-12-28T13:47:43;10.60;99.90
60293;DHT22;52402;52.670;6.750;2023-12-28T13:50:09;10.60;99.90
60293;DHT22;52402;52.670;6.750;2023-12-28T13:52:35;10.60;99.90
60293;DHT22;52402;52.670;6.750;2023-12-28T13:55:01;10.70;99.90
60293;DHT22;52402;52.670;6.750;2023-12-28T13:57:26;10.60;99.90
60293;DHT22;52402;52.670;6.750;2023-12-28T13:59:52;10.60;99.90
60293;DHT22;52402;52.670;6.750;2023-12-28T14:02:17;10.60;99.90
60293;DHT22;52402;52.670;6.750;2023-12-28T14:04:43;10.60;99.90
60293;DHT22;52402;52.670;6.750;2023-12-28T14:07:09;10.60;99.90
60293;DHT22;52402;52.670;6.750;2023-12-28T14:09:34;10.60;99.90
60293;DHT22;52402;52.670;6.750;2023-12-28T14:12:01;10.60;99.90
60293;DHT22;52402;52.670;6.750;2023-12-28T14:14:27;10.60;99.90
60293;DHT22;52402;52.670;6.750;2023-12-28T14:16:52;10.60;99.90
60293;DHT22;52402;52.670;6.750;2023-12-28T14:19:18;10.60;99.90
60293;DHT22;52402;52.670;6.750;2023-12-28T14:21:44;10.60;99.90
60293;DHT22;52402;52.670;6.750;2023-12-28T14:24:10;10.60;99.90
60293;DHT22;52402;52.670;6.750;2023-12-28T14:26:40;10.60;99.90
60293;DHT22;52402;52.670;6.750;2023-12-28T14:29:07;10.50;99.90
60293;DHT22;52402;52.670;6.750;2023-12-28T14:31:33;10.50;99.90
60293;DHT22;52402;52.670;6.750;2023-12-28T14:33:59;10.50;99.90
60293;DHT22;52402;52.670;6.750;2023-12-28T14:36:35;10.50;99.90
60293;DHT22;52402;52.670;6.750;2023-12-28T14:39:04;10.50;99.90
60293;DHT22;52402;52.670;6.750;2023-12-28T14:41:37;10.50;99.90
60293;DHT22;52402;52.670;6.750;2023-12-28T14:44:03;10.50;99.90
60293;DHT22;52402;52.670;6.750;2023-12-28T14:46:29;10.50;99.90
60293;DHT22;52402;52.670;6.750;2023-12-28T14:48:55;10.50;99.90
60293;DHT22;52402;52.670;6.750;2023-12-28T14:51:21;10.50;99.90
60293;DHT22;52402;52.670;6.750;2023-12-28T14:53:47;10.50;99.90
60293;DHT22;52402;52.670;6.750;2023-12-28T14:56:13;10.50;99.90
60293;DHT22;52402;52.670;6.750;2023-12-28T14:58:39;10.50;99.90
60293;DHT22;52402;52.670;6.750;2023-12-28T15:01:06;10.40;99.90
60293;DHT22;52402;52.670;6.750;2023-12-28T15:03:32;10.50;99.90
60293;DHT22;52402;52.670;6.750;2023-12-28T15:05:58;10.40;99.90
60293;DHT22;52402;52.670;6.750;2023-12-28T15:08:25;10.40;99.90
60293;DHT22;52402;52.670;6.750;2023-12-28T15:10:51;10.40;99.90
60293;DHT22;52402;52.670;6.750;2023-12-28T15:13:17;10.30;99.90
60293;DHT22;52402;52.670;6.750;2023-12-28T15:15:43;10.30;99.90
60293;DHT22;52402;52.670;6.750;2023-12-28T15:18:11;10.30;99.90
60293;DHT22;52402;52.670;6.750;2023-12-28T15:20:37;10.30;99.90
60293;DHT22;52402;52.670;6.750;2023-12-28T15:23:02;10.40;99.90
60293;DHT22;52402;52.670;6.750;2023-12-28T15:25:28;10.40;99.90
60293;DHT22;52402;52.670;6.750;2023-12-28T15:27:54;10.30;99.90
60293;DHT22;52402;52.670;6.750;2023-12-28T15:30:20;10.20;99.90
60293;DHT22;52402;52.670;6.750;2023-12-28T15:32:46;10.20;99.90
60293;DHT22;52402;52.670;6.750;2023-12-28T15:35:13;10.20;99.90